Impacts METAR Board
IDs:

KMNZ - Hamilton Muni, TX, US

Updated at: 0300 UTC 06 Dec 2019
Potential Impact None Slight Moderate High
Time 05/15Z 05/16Z 05/17Z 05/18Z 05/19Z 05/20Z 05/21Z 05/22Z 05/23Z 06/00Z 06/01Z 06/02Z 06/03Z
Temp54 60 66 71 75 79 80 80 77 70 63 61
Dewpt40 44 46 47 45 45 45 47 46 52 52 51
Altim30.01 30.02 30.02 29.98 29.93 29.90 29.89 29.87 29.87 29.88 29.92 29.95
VIS10 10 10 10 10 10 10 10 10 10 10 10
CIG-- -- -- -- -- -- -- -- -- -- -- --
CoverCLRCLRCLRCLRCLRCLRCLRCLRCLRCLRCLRCLR
FltCatVFRVFRVFRVFRVFRVFRVFRVFRVFRVFRVFRVFR
WX------------------------
WDir170190210200190200190200180170190200
WSpd5 12 9 12 11 12 10 10 8 9 9 9
WGst-- -- -- -- -- -- -- -- -- -- -- --
Raw hourly METARs
KMNZ 051455Z AUTO 17005KT 10SM CLR 12/05 A3001 RMK AO2 T01240046
KMNZ 051555Z AUTO 19012KT 10SM CLR 16/07 A3002 RMK AO2 T01570068
KMNZ 051700Z AUTO 21009KT 10SM CLR 19/08 A3002 RMK AO2 T01870078
KMNZ 051750Z AUTO 20012KT 10SM CLR 22/09 A2998 RMK AO2 T02180085 10219 20081
KMNZ 051855Z AUTO 19011KT 10SM CLR 24/07 A2993 RMK AO2 T02400072
KMNZ 052000Z AUTO 20012KT 10SM CLR 26/07 A2990 RMK AO2 T02630070
KMNZ 052100Z AUTO 19010KT 10SM CLR 27/07 A2989 RMK AO2 T02650070
KMNZ 052155Z AUTO 20010KT 10SM CLR 27/08 A2987 RMK AO2 T02650081
KMNZ 052255Z AUTO 18008KT 10SM CLR 25/08 A2987 RMK AO2 T02480080
KMNZ 052355Z AUTO 17009KT 10SM CLR 21/11 A2988 RMK AO2 T02130111 10269 20213

KMNZ 060155Z AUTO 19009KT 10SM CLR 17/11 A2992 RMK AO2 T01740111
KMNZ 060255Z AUTO 20009KT 10SM CLR 16/11 A2995 RMK AO2 T01630108